createdAt,value
2022-10-02T00:01:33.802Z,19.37
2022-10-02T00:04:03.854Z,19.36
2022-10-02T00:06:42.047Z,19.32
2022-10-02T00:09:20.866Z,19.37
2022-10-02T00:11:53.771Z,19.38
2022-10-02T00:14:25.513Z,19.15
2022-10-02T00:16:56.746Z,19.09
2022-10-02T00:19:24.794Z,19.11
2022-10-02T00:22:09.909Z,19.02
2022-10-02T00:24:42.323Z,19.08
2022-10-02T00:27:34.994Z,19.19
2022-10-02T00:30:04.856Z,19.20
2022-10-02T00:32:38.937Z,19.21
2022-10-02T00:35:44.037Z,19.17
2022-10-02T00:38:27.002Z,19.09
2022-10-02T00:41:12.364Z,19.14
2022-10-02T00:43:53.745Z,19.16
2022-10-02T00:46:46.562Z,19.17
2022-10-02T00:49:44.218Z,19.04
2022-10-02T00:52:29.935Z,19.09
2022-10-02T00:55:27.470Z,19.15
2022-10-02T00:58:09.213Z,19.09
2022-10-02T01:00:40.548Z,19.09
2022-10-02T01:03:16.784Z,19.09
2022-10-02T01:05:44.965Z,19.09
2022-10-02T01:08:14.095Z,19.10
2022-10-02T01:10:42.323Z,19.06
2022-10-02T01:13:10.737Z,19.01
2022-10-02T01:15:45.695Z,18.97
2022-10-02T01:18:15.970Z,18.93
2022-10-02T01:20:46.153Z,18.98
2022-10-02T01:23:21.271Z,18.90
2022-10-02T01:25:50.593Z,18.91
2022-10-02T01:28:19.114Z,18.84
2022-10-02T01:30:52.257Z,18.92
2022-10-02T01:33:20.775Z,18.89
2022-10-02T01:35:49.645Z,18.79
2022-10-02T01:38:21.566Z,18.72
2022-10-02T01:40:50.880Z,18.70
2022-10-02T01:43:21.269Z,18.60
2022-10-02T01:45:58.330Z,18.57
2022-10-02T01:48:43.840Z,18.71
2022-10-02T01:51:29.346Z,18.68
2022-10-02T01:54:09.750Z,18.61
2022-10-02T01:56:48.762Z,18.62
2022-10-02T01:59:24.339Z,18.53
2022-10-02T02:02:02.295Z,18.51
2022-10-02T02:04:38.359Z,18.45
2022-10-02T02:07:12.625Z,18.34
2022-10-02T02:09:45.494Z,18.45
2022-10-02T02:12:21.068Z,18.38
2022-10-02T02:14:53.070Z,18.38
2022-10-02T02:17:28.269Z,18.37
2022-10-02T02:20:03.582Z,18.39
2022-10-02T02:22:35.428Z,18.35
2022-10-02T02:25:09.602Z,18.37
2022-10-02T02:27:42.763Z,18.23
2022-10-02T02:30:14.042Z,18.20
2022-10-02T02:32:46.940Z,18.16
2022-10-02T02:35:18.971Z,18.11
2022-10-02T02:37:50.994Z,18.10
2022-10-02T02:40:23.957Z,18.04
2022-10-02T02:42:57.679Z,17.96
2022-10-02T02:45:26.444Z,17.99
2022-10-02T02:47:57.629Z,17.90
2022-10-02T02:50:30.291Z,17.97
2022-10-02T02:53:03.237Z,17.91
2022-10-02T02:55:35.990Z,17.96
2022-10-02T02:58:11.894Z,17.80
2022-10-02T03:00:40.296Z,17.77
2022-10-02T03:03:08.770Z,17.82
2022-10-02T03:05:39.825Z,17.64
2022-10-02T03:08:13.309Z,17.68
2022-10-02T03:10:51.721Z,17.60
2022-10-02T03:13:34.642Z,17.53
2022-10-02T03:16:18.898Z,17.60
2022-10-02T03:19:01.641Z,17.49
2022-10-02T03:21:36.889Z,17.43
2022-10-02T03:24:10.194Z,17.46
2022-10-02T03:26:42.249Z,17.37
2022-10-02T03:29:16.938Z,17.36
2022-10-02T03:31:46.434Z,17.09
2022-10-02T03:34:14.961Z,17.14
2022-10-02T03:36:43.028Z,17.11
2022-10-02T03:39:26.624Z,17.02
2022-10-02T03:41:55.226Z,16.92
2022-10-02T03:44:24.730Z,16.92
2022-10-02T03:46:52.833Z,17.06
2022-10-02T03:49:20.794Z,16.87
2022-10-02T03:51:48.717Z,16.80
2022-10-02T03:54:19.319Z,16.92
2022-10-02T03:56:56.003Z,16.82
2022-10-02T03:59:36.247Z,16.80
2022-10-02T04:02:10.626Z,16.61
2022-10-02T04:04:47.272Z,16.65
2022-10-02T04:07:23.094Z,16.44
2022-10-02T04:09:57.712Z,16.42
2022-10-02T04:12:32.213Z,16.36
2022-10-02T04:15:05.159Z,16.47
2022-10-02T04:17:44.123Z,16.44
2022-10-02T04:20:18.224Z,16.44
2022-10-02T04:22:52.783Z,16.28
2022-10-02T04:25:24.028Z,16.30
2022-10-02T04:27:56.242Z,16.24
2022-10-02T04:30:25.591Z,16.35
2022-10-02T04:32:54.867Z,16.39
2022-10-02T04:35:29.081Z,16.32
2022-10-02T04:38:30.294Z,16.31
2022-10-02T04:41:20.411Z,16.41
2022-10-02T04:44:02.041Z,16.26
2022-10-02T04:46:54.873Z,16.23
2022-10-02T04:49:47.044Z,16.15
2022-10-02T04:52:33.705Z,16.18
2022-10-02T04:55:25.769Z,16.20
2022-10-02T04:58:08.206Z,16.28
2022-10-02T05:00:42.103Z,16.31
2022-10-02T05:03:23.788Z,16.28
2022-10-02T05:06:16.430Z,16.22
2022-10-02T05:08:57.577Z,16.46
2022-10-02T05:11:43.453Z,16.43
2022-10-02T05:14:35.670Z,16.58
2022-10-02T05:17:22.285Z,16.81
2022-10-02T05:20:01.733Z,16.87
2022-10-02T05:22:50.695Z,16.71
2022-10-02T05:25:34.941Z,17.18
2022-10-02T05:28:31.662Z,17.24
2022-10-02T05:31:13.985Z,17.17
2022-10-02T05:34:04.253Z,17.43
2022-10-02T05:36:47.742Z,17.37
2022-10-02T05:39:22.767Z,17.38
2022-10-02T05:41:58.299Z,17.56
2022-10-02T05:44:35.914Z,17.30
2022-10-02T05:47:11.911Z,17.43
2022-10-02T05:49:42.983Z,17.47
2022-10-02T05:52:17.893Z,17.56
2022-10-02T05:54:52.583Z,17.74
2022-10-02T05:57:27.731Z,17.82
2022-10-02T06:00:06.411Z,17.90
2022-10-02T06:02:43.336Z,18.08
2022-10-02T06:05:18.496Z,18.11
2022-10-02T06:07:52.558Z,18.20
2022-10-02T06:10:25.438Z,18.28
2022-10-02T06:12:59.737Z,18.37
2022-10-02T06:15:32.582Z,18.41
2022-10-02T06:18:04.277Z,18.31
2022-10-02T06:20:37.434Z,18.47
2022-10-02T06:23:11.832Z,18.53
2022-10-02T06:25:44.030Z,18.56
2022-10-02T06:28:19.346Z,18.76
2022-10-02T06:30:50.912Z,18.92
2022-10-02T06:33:23.652Z,19.15
2022-10-02T06:36:23.009Z,19.35
2022-10-02T06:39:14.361Z,19.34
2022-10-02T06:41:51.418Z,19.19
2022-10-02T06:44:26.685Z,19.20
2022-10-02T06:47:14.086Z,19.13
2022-10-02T06:49:57.992Z,19.00
2022-10-02T06:52:37.909Z,18.82
2022-10-02T06:55:25.130Z,18.80
2022-10-02T06:58:10.416Z,19.15
2022-10-02T07:00:46.850Z,19.11
2022-10-02T07:03:33.010Z,19.23
2022-10-02T07:06:17.198Z,19.24
2022-10-02T07:09:04.443Z,19.32
2022-10-02T07:11:43.384Z,19.44
2022-10-02T07:14:33.299Z,19.71
2022-10-02T07:17:30.818Z,19.83
2022-10-02T07:20:19.525Z,19.96
2022-10-02T07:23:12.954Z,20.08
2022-10-02T07:25:53.069Z,20.19
2022-10-02T07:28:32.042Z,20.07
2022-10-02T07:31:05.847Z,20.18
2022-10-02T07:33:42.701Z,20.34
2022-10-02T07:36:14.790Z,20.47
2022-10-02T07:39:00.965Z,20.56
2022-10-02T07:41:48.621Z,20.80
2022-10-02T07:44:36.094Z,20.89
2022-10-02T07:47:14.967Z,20.83
2022-10-02T07:49:52.852Z,21.02
2022-10-02T07:52:30.606Z,21.04
2022-10-02T07:55:23.370Z,21.15
2022-10-02T07:58:02.477Z,21.05
2022-10-02T08:00:35.782Z,21.27
2022-10-02T08:03:09.501Z,21.04
2022-10-02T08:05:42.521Z,20.95
2022-10-02T08:08:19.630Z,21.28
2022-10-02T08:10:52.750Z,21.17
2022-10-02T08:13:24.118Z,21.39
2022-10-02T08:15:56.628Z,21.47
2022-10-02T08:18:35.081Z,21.34
2022-10-02T08:21:06.061Z,21.60
2022-10-02T08:23:40.882Z,21.52
2022-10-02T08:26:13.690Z,21.42
2022-10-02T08:28:46.107Z,21.69
2022-10-02T08:31:16.105Z,21.67
2022-10-02T08:33:44.149Z,21.62
2022-10-02T08:36:30.269Z,21.60
2022-10-02T08:39:15.243Z,21.57
2022-10-02T08:42:33.566Z,21.72
2022-10-02T08:45:38.858Z,21.96
2022-10-02T08:48:56.000Z,21.85
2022-10-02T08:52:04.237Z,21.91
2022-10-02T08:55:04.680Z,22.08
2022-10-02T08:57:55.350Z,22.08
2022-10-02T09:00:25.360Z,21.84
2022-10-02T09:03:31.933Z,22.27
2022-10-02T09:06:41.918Z,22.05
2022-10-02T09:10:01.408Z,22.12
2022-10-02T09:12:58.449Z,22.19
2022-10-02T09:15:41.501Z,22.27
2022-10-02T09:18:17.997Z,22.41
2022-10-02T09:21:15.595Z,22.43
2022-10-02T09:24:19.757Z,22.66
2022-10-02T09:27:24.441Z,22.63
2022-10-02T09:30:33.870Z,22.54
2022-10-02T09:33:44.111Z,22.34
2022-10-02T09:36:34.968Z,22.52
2022-10-02T09:39:39.989Z,22.59
2022-10-02T09:42:40.450Z,22.49
2022-10-02T09:45:44.077Z,22.54
2022-10-02T09:48:59.351Z,22.32
2022-10-02T09:51:51.955Z,22.55
2022-10-02T09:55:00.371Z,22.23
2022-10-02T09:58:02.580Z,22.44
2022-10-02T10:00:46.494Z,22.47
2022-10-02T10:03:31.790Z,22.27
2022-10-02T10:06:39.314Z,22.37
2022-10-02T10:09:45.056Z,22.32
2022-10-02T10:12:57.863Z,22.27
2022-10-02T10:15:58.710Z,22.61
2022-10-02T10:19:04.511Z,22.66
2022-10-02T10:22:04.697Z,22.76
2022-10-02T10:24:52.838Z,22.66
2022-10-02T10:27:36.633Z,22.75
2022-10-02T10:30:10.184Z,22.47
2022-10-02T10:33:19.183Z,22.13
2022-10-02T10:36:33.988Z,22.15
2022-10-02T10:39:20.345Z,22.03
2022-10-02T10:42:15.925Z,21.78
2022-10-02T10:45:03.315Z,22.06
2022-10-02T10:47:54.917Z,22.13
2022-10-02T10:50:50.255Z,22.30
2022-10-02T10:53:41.227Z,22.25
2022-10-02T10:56:44.847Z,22.46
2022-10-02T10:59:51.261Z,22.45
2022-10-02T11:02:54.783Z,22.52
2022-10-02T11:06:03.920Z,22.52
2022-10-02T11:09:15.841Z,22.49
2022-10-02T11:11:58.745Z,22.57
2022-10-02T11:14:38.345Z,22.33
2022-10-02T11:17:44.529Z,22.34
2022-10-02T11:20:58.805Z,22.46
2022-10-02T11:24:02.143Z,22.68
2022-10-02T11:26:46.145Z,22.22
2022-10-02T11:29:45.214Z,22.33
2022-10-02T11:32:58.150Z,22.08
2022-10-02T11:35:33.343Z,21.90
2022-10-02T11:38:19.031Z,21.90
2022-10-02T11:40:59.615Z,21.84
2022-10-02T11:43:44.064Z,21.87
2022-10-02T11:46:43.365Z,21.93
2022-10-02T11:49:31.583Z,21.73
2022-10-02T11:52:23.865Z,21.82
2022-10-02T11:55:05.213Z,22.01
2022-10-02T11:57:40.775Z,22.02
2022-10-02T12:00:38.691Z,22.02
2022-10-02T12:03:18.192Z,21.96
2022-10-02T12:05:55.405Z,21.96
2022-10-02T12:08:35.041Z,21.92
2022-10-02T12:11:16.702Z,21.91
2022-10-02T12:14:04.297Z,22.03
2022-10-02T12:16:48.905Z,21.99
2022-10-02T12:19:30.938Z,22.03
2022-10-02T12:22:31.742Z,21.98
2022-10-02T12:25:33.979Z,21.99
2022-10-02T12:28:13.873Z,21.83
2022-10-02T12:30:47.335Z,21.96
2022-10-02T12:33:28.466Z,21.81
2022-10-02T12:36:24.434Z,21.79
2022-10-02T12:39:05.277Z,21.82
2022-10-02T12:42:00.134Z,21.75
2022-10-02T12:45:11.919Z,21.69
2022-10-02T12:48:01.333Z,21.74
2022-10-02T12:51:05.659Z,21.55
2022-10-02T12:54:04.708Z,21.54
2022-10-02T12:57:04.902Z,21.46
2022-10-02T12:59:42.750Z,21.41
2022-10-02T13:03:00.780Z,21.43
2022-10-02T13:06:07.947Z,21.44
2022-10-02T13:09:02.839Z,21.27
2022-10-02T13:11:42.199Z,21.16
2022-10-02T13:14:28.320Z,20.91
2022-10-02T13:17:10.565Z,20.91
2022-10-02T13:19:53.089Z,20.89
2022-10-02T13:22:29.242Z,20.90
2022-10-02T13:25:18.697Z,20.80
2022-10-02T13:27:59.410Z,20.50
2022-10-02T13:30:35.798Z,20.50
2022-10-02T13:33:26.607Z,20.51
2022-10-02T13:36:04.711Z,20.67
2022-10-02T13:38:59.549Z,20.36
2022-10-02T13:41:39.892Z,20.14
2022-10-02T13:44:21.133Z,20.33
2022-10-02T13:47:06.120Z,20.43
2022-10-02T13:49:54.234Z,20.46
2022-10-02T13:52:33.604Z,20.04
2022-10-02T13:55:13.997Z,20.10
2022-10-02T13:58:02.391Z,19.92
2022-10-02T14:00:53.907Z,19.73
2022-10-02T14:03:34.709Z,20.20
2022-10-02T14:06:08.360Z,20.09
2022-10-02T14:08:55.509Z,20.10
2022-10-02T14:11:30.884Z,20.12
2022-10-02T14:14:09.761Z,20.12
2022-10-02T14:16:53.686Z,20.20
2022-10-02T14:19:25.499Z,20.22
2022-10-02T14:22:08.263Z,19.96
2022-10-02T14:25:04.350Z,19.78
2022-10-02T14:27:58.055Z,19.30
2022-10-02T14:30:37.389Z,19.58
2022-10-02T14:33:11.613Z,19.55
2022-10-02T14:35:52.889Z,19.47
2022-10-02T14:38:32.648Z,19.52
2022-10-02T14:41:13.360Z,19.57
2022-10-02T14:44:07.430Z,19.55
2022-10-02T14:46:54.532Z,19.67
2022-10-02T14:49:41.010Z,19.45
2022-10-02T14:52:26.056Z,19.37
2022-10-02T14:55:17.011Z,19.05
2022-10-02T14:58:01.762Z,19.07
2022-10-02T15:00:36.769Z,19.03
2022-10-02T15:03:39.554Z,18.84
2022-10-02T15:06:30.304Z,18.75
2022-10-02T15:09:04.413Z,18.67
2022-10-02T15:11:56.939Z,18.79
2022-10-02T15:14:29.718Z,18.63
2022-10-02T15:17:18.831Z,18.55
2022-10-02T15:19:50.583Z,18.45
2022-10-02T15:22:23.055Z,18.48
2022-10-02T15:24:57.762Z,18.36
2022-10-02T15:27:26.986Z,18.20
2022-10-02T15:30:06.189Z,18.17
2022-10-02T15:32:45.445Z,18.15
2022-10-02T15:35:48.207Z,18.14
2022-10-02T15:38:43.814Z,18.08
2022-10-02T15:41:38.365Z,18.05
2022-10-02T15:44:22.545Z,18.00
2022-10-02T15:46:56.325Z,17.92
2022-10-02T15:49:32.242Z,17.78
2022-10-02T15:52:06.653Z,17.98
2022-10-02T15:54:49.353Z,18.05
2022-10-02T15:57:31.258Z,17.73
2022-10-02T16:00:15.326Z,17.78
2022-10-02T16:02:57.361Z,17.63
2022-10-02T16:06:00.965Z,17.64
2022-10-02T16:09:02.320Z,17.57
2022-10-02T16:12:23.810Z,17.42
2022-10-02T16:15:02.840Z,17.24
2022-10-02T16:17:52.301Z,17.35
2022-10-02T16:20:49.398Z,17.13
2022-10-02T16:23:40.843Z,17.24
2022-10-02T16:26:21.186Z,17.14
2022-10-02T16:28:56.556Z,16.88
2022-10-02T16:31:45.894Z,16.83
2022-10-02T16:34:27.013Z,16.86
2022-10-02T16:37:02.081Z,16.99
2022-10-02T16:39:57.686Z,16.89
2022-10-02T16:42:36.284Z,16.80
2022-10-02T16:45:28.561Z,16.72
2022-10-02T16:48:06.452Z,16.80
2022-10-02T16:50:48.174Z,16.82
2022-10-02T16:53:32.690Z,16.89
2022-10-02T16:56:12.380Z,16.86
2022-10-02T16:58:47.707Z,16.87
2022-10-02T17:01:27.414Z,16.78
2022-10-02T17:04:16.562Z,16.69
2022-10-02T17:06:50.711Z,16.75
2022-10-02T17:09:26.977Z,16.78
2022-10-02T17:12:03.187Z,16.67
2022-10-02T17:14:42.922Z,16.81
2022-10-02T17:17:17.277Z,16.69
2022-10-02T17:19:51.360Z,16.61
2022-10-02T17:22:28.830Z,16.48
2022-10-02T17:25:07.437Z,16.43
2022-10-02T17:27:49.820Z,16.29
2022-10-02T17:30:24.186Z,16.17
2022-10-02T17:33:08.291Z,16.19
2022-10-02T17:35:47.591Z,16.13
2022-10-02T17:38:48.100Z,16.06
2022-10-02T17:41:38.377Z,16.02
2022-10-02T17:44:15.326Z,16.02
2022-10-02T17:47:23.573Z,16.03
2022-10-02T17:50:11.901Z,16.06
2022-10-02T17:53:03.634Z,16.01
2022-10-02T17:56:17.446Z,16.09
2022-10-02T17:58:56.629Z,16.11
2022-10-02T18:01:33.177Z,16.05
2022-10-02T18:04:14.282Z,16.12
2022-10-02T18:06:53.034Z,16.11
2022-10-02T18:09:45.087Z,16.01
2022-10-02T18:12:40.365Z,16.00
2022-10-02T18:15:22.923Z,16.11
2022-10-02T18:18:08.359Z,16.14
2022-10-02T18:20:46.129Z,16.09
2022-10-02T18:23:29.717Z,16.08
2022-10-02T18:26:18.728Z,15.91
2022-10-02T18:29:16.754Z,15.70
2022-10-02T18:32:04.231Z,15.78
2022-10-02T18:34:56.020Z,15.83
2022-10-02T18:37:43.515Z,15.62
2022-10-02T18:40:23.332Z,15.53
2022-10-02T18:43:13.146Z,15.52
2022-10-02T18:45:48.885Z,15.41
2022-10-02T18:48:35.967Z,15.34
2022-10-02T18:51:20.583Z,15.16
2022-10-02T18:54:06.293Z,15.18
2022-10-02T18:57:03.868Z,15.19
2022-10-02T18:59:46.129Z,15.27
2022-10-02T19:02:26.493Z,15.26
2022-10-02T19:05:22.744Z,14.95
2022-10-02T19:07:57.316Z,15.02
2022-10-02T19:10:29.279Z,15.10
2022-10-02T19:13:02.023Z,15.10
2022-10-02T19:15:32.496Z,14.94
2022-10-02T19:18:02.825Z,15.01
2022-10-02T19:20:53.229Z,15.07
2022-10-02T19:23:26.733Z,15.04
2022-10-02T19:25:57.107Z,15.17
2022-10-02T19:28:28.340Z,15.05
2022-10-02T19:31:00.302Z,15.08
2022-10-02T19:33:35.494Z,15.10
2022-10-02T19:36:07.378Z,15.10
2022-10-02T19:38:38.568Z,15.07
2022-10-02T19:41:10.743Z,15.02
2022-10-02T19:43:48.275Z,15.01
2022-10-02T19:46:19.974Z,15.10
2022-10-02T19:48:55.339Z,15.10
2022-10-02T19:51:26.033Z,15.17
2022-10-02T19:53:59.638Z,15.14
2022-10-02T19:56:33.080Z,15.17
2022-10-02T19:59:05.862Z,15.27
2022-10-02T20:01:43.396Z,15.37
2022-10-02T20:04:18.428Z,15.40
2022-10-02T20:06:52.503Z,15.31
2022-10-02T20:09:26.343Z,15.31
2022-10-02T20:11:58.831Z,15.28
2022-10-02T20:14:32.185Z,15.27
2022-10-02T20:17:11.136Z,15.01
2022-10-02T20:19:45.337Z,15.10
2022-10-02T20:22:25.068Z,14.97
2022-10-02T20:24:58.374Z,15.10
2022-10-02T20:27:37.154Z,14.85
2022-10-02T20:30:08.258Z,14.89
2022-10-02T20:32:42.148Z,14.91
2022-10-02T20:35:17.698Z,14.93
2022-10-02T20:37:50.490Z,14.93
2022-10-02T20:40:22.541Z,14.77
2022-10-02T20:42:58.338Z,14.57
2022-10-02T20:45:34.145Z,14.68
2022-10-02T20:49:07.620Z,14.84
2022-10-02T20:52:11.970Z,14.69
2022-10-02T20:54:54.256Z,14.56
2022-10-02T20:58:02.382Z,14.54
2022-10-02T21:00:42.278Z,14.47
2022-10-02T21:03:27.025Z,14.37
2022-10-02T21:06:19.522Z,14.42
2022-10-02T21:09:08.515Z,14.42
2022-10-02T21:12:00.375Z,14.36
2022-10-02T21:14:44.830Z,14.32
2022-10-02T21:17:50.895Z,14.37
2022-10-02T21:20:57.195Z,14.26
2022-10-02T21:23:58.398Z,14.32
2022-10-02T21:26:57.561Z,14.31
2022-10-02T21:29:40.190Z,14.34
2022-10-02T21:32:22.999Z,14.34
2022-10-02T21:35:07.019Z,14.19
2022-10-02T21:37:47.580Z,14.16
2022-10-02T21:41:01.566Z,14.11
2022-10-02T21:44:16.457Z,14.08
2022-10-02T21:47:10.089Z,14.11
2022-10-02T21:50:15.465Z,14.02
2022-10-02T21:53:34.169Z,13.92
2022-10-02T21:56:52.572Z,13.83
2022-10-02T21:59:46.721Z,13.91
2022-10-02T22:02:33.381Z,13.95
2022-10-02T22:05:24.273Z,13.83
2022-10-02T22:08:00.391Z,13.64
2022-10-02T22:10:36.862Z,13.72
2022-10-02T22:13:20.423Z,13.79
2022-10-02T22:15:58.113Z,13.77
2022-10-02T22:18:33.377Z,13.76
2022-10-02T22:21:18.806Z,13.56
2022-10-02T22:24:05.762Z,13.66
2022-10-02T22:26:57.471Z,13.63
2022-10-02T22:29:39.189Z,13.76
2022-10-02T22:33:03.982Z,13.64
2022-10-02T22:35:47.346Z,13.44
2022-10-02T22:38:19.375Z,13.50
2022-10-02T22:40:53.848Z,13.52
2022-10-02T22:43:28.917Z,13.27
2022-10-02T22:46:01.734Z,13.32
2022-10-02T22:48:40.182Z,13.13
2022-10-02T22:51:16.201Z,13.33
2022-10-02T22:53:50.523Z,13.32
2022-10-02T22:56:28.870Z,13.13
2022-10-02T22:59:07.410Z,13.09
2022-10-02T23:01:44.922Z,13.07
2022-10-02T23:04:25.318Z,12.93
2022-10-02T23:07:01.374Z,13.19
2022-10-02T23:09:39.517Z,13.13
2022-10-02T23:12:13.004Z,13.04
2022-10-02T23:14:59.437Z,13.23
2022-10-02T23:17:36.248Z,13.23
2022-10-02T23:20:14.722Z,13.26
2022-10-02T23:22:51.403Z,13.25
2022-10-02T23:25:26.057Z,13.17
2022-10-02T23:27:59.770Z,13.14
2022-10-02T23:30:30.401Z,12.78
2022-10-02T23:33:03.975Z,12.63
2022-10-02T23:35:39.816Z,12.74
2022-10-02T23:38:17.084Z,12.75
2022-10-02T23:41:21.153Z,12.63
2022-10-02T23:43:58.497Z,12.76
2022-10-02T23:46:32.345Z,12.77
2022-10-02T23:49:00.398Z,12.55
2022-10-02T23:51:42.142Z,12.65
2022-10-02T23:54:31.313Z,12.57
2022-10-02T23:57:17.326Z,12.77
